Fure West — OZ2100 — position and weather

sailwx.info

Track history (hours):
 
Tides and Currents Weather Stations Pressure Air Temp Water Temp Dewpoint Dewpoint Depression Visibility Wind Speed Wind Dir Waves Ship Positions

Fure West

Last reported at 2018-Apr-26 08:59 UTC. Time now 2018-Apr-26 09:27 UTC.
Position N 54°51' E 005°37'.

Length 144 m; draft 9.1 m.

Type: Ship (hazmat cat C). MMSI: 231775000.

Date/timePositionNaut miles runAvg speedWind from/ knotsBaromVisibWave heightAir tempDewpointWater temp
2018-Apr-26 08:59N 54°51' E 005°37'510.2
2018-Apr-26 08:30N 54°47' E 005°32'612.0
2018-Apr-26 07:59N 54°42' E 005°26'611.8
2018-Apr-26 07:29N 54°38' E 005°18'3 6.7
2018-Apr-26 06:59N 54°37' E 005°13'3 6.8
2018-Apr-26 06:30N 54°35' E 005°16'611.5
2018-Apr-26 06:00N 54°29' E 005°12'612.2
2018-Apr-26 05:28N 54°24' E 005°06'612.3
2018-Apr-26 04:59N 54°19' E 005°00'612.5
2018-Apr-26 04:30N 54°14' E 004°55'2112.3
2018-Apr-26 02:46N 53°56' E 004°35'10911.5
2018-Apr-25 17:15N 52°17' E 003°17'311.8
2018-Apr-25 17:00N 52°15' E 003°20'611.8
2018-Apr-25 16:30N 52°11' E 003°27'712.1
2018-Apr-25 15:54N 52°07' E 003°37'512.1
2018-Apr-25 15:30N 52°05' E 003°44'612.2
2018-Apr-25 15:00N 52°03' E 003°53'4 8.9
2018-Apr-25 14:30N 52°01' E 003°59'4 8.9
2018-Apr-25 14:01N 51°58' E 004°04'1 2.5
2018-Apr-25 13:28N 51°58' E 004°02'0 0.0
2018-Apr-25 12:58N 51°58' E 004°02'0 0.0
2018-Apr-24 19:03N 51°58' E 004°02'0 0.0
2018-Apr-24 18:35N 51°58' E 004°02'0 0.1
2018-Apr-24 18:30N 51°58' E 004°02'1 1.6
2018-Apr-24 18:00N 51°58' E 004°03'2 4.0
2018-Apr-24 17:30N 51°59' E 004°02'612.2
2018-Apr-24 17:00N 52°01' E 003°52'510.6
2018-Apr-24 16:29N 52°05' E 003°46'5 9.8
2018-Apr-24 16:00N 52°09' E 003°43'2 2.8
2018-Apr-24 15:27N 52°11' E 003°41'0 0.1
2018-Apr-24 14:57N 52°11' E 003°41'0 0.1
2018-Apr-24 14:21N 52°11' E 003°42'0 0.1
2018-Apr-24 13:48N 52°11' E 003°41'0 0.0
2018-Apr-24 13:24N 52°11' E 003°41'0 0.0
2018-Apr-24 13:00N 52°11' E 003°41'0 0.0
2018-Apr-24 12:21N 52°11' E 003°41'0 0.0
2018-Apr-24 11:51N 52°11' E 003°41'0 0.0
2018-Apr-24 11:27N 52°11' E 003°41'0 0.0
2018-Apr-24 10:48N 52°11' E 003°42'0 0.1
2018-Apr-24 10:24N 52°11' E 003°41'0 0.0
2018-Apr-24 09:57N 52°11' E 003°41'0 0.0
2018-Apr-24 09:30N 52°11' E 003°42'0 0.0
2018-Apr-24 07:57N 52°11' E 003°41'0 0.1
2018-Apr-24 07:30N 52°11' E 003°42'0 0.0
2018-Apr-24 06:57N 52°11' E 003°41'0 0.0
2018-Apr-24 06:30N 52°11' E 003°42'0 0.0
2018-Apr-24 06:00N 52°11' E 003°42'0 0.0
2018-Apr-24 05:21N 52°11' E 003°41'0 0.0
2018-Apr-24 04:51N 52°11' E 003°41'0 0.1
2018-Apr-24 04:30N 52°11' E 003°41'0 0.0
2018-Apr-24 03:48N 52°11' E 003°41'0 0.0
2018-Apr-24 03:27N 52°11' E 003°41'0 0.0
2018-Apr-24 03:00N 52°11' E 003°41'0 0.0
2018-Apr-24 02:27N 52°11' E 003°42'0 0.3
2018-Apr-24 01:54N 52°10' E 003°41'2 4.8
2018-Apr-24 01:30N 52°12' E 003°44'510.2
2018-Apr-24 01:01N 52°16' E 003°47'15 9.7
2018-Apr-23 23:25N 52°31' E 003°54'4 9.8
2018-Apr-23 23:00N 52°31' E 004°01'5 9.2
2018-Apr-23 22:30N 52°31' E 004°09'5 9.1
2018-Apr-23 22:00N 52°31' E 004°16'5 9.5
2018-Apr-23 21:30N 52°30' E 004°24'4 8.9
2018-Apr-23 21:00N 52°28' E 004°31'4 7.4
2018-Apr-23 20:30N 52°28' E 004°37'0 0.0
2018-Apr-23 20:00N 52°28' E 004°37'2 4.1
2018-Apr-23 19:30N 52°28' E 004°40'4 8.0
2018-Apr-23 19:00N 52°26' E 004°46'1 2.6
2018-Apr-23 18:28N 52°24' E 004°46'0 0.0
2018-Apr-23 17:58N 52°24' E 004°46'0 0.0
2018-Apr-23 17:19N 52°24' E 004°46'0 0.0
2018-Apr-23 16:58N 52°24' E 004°46'0 0.0
2018-Apr-23 16:07N 52°24' E 004°46'0 0.0
2018-Apr-23 15:52N 52°24' E 004°46'0 0.0
2018-Apr-23 15:28N 52°24' E 004°46'0 0.0
2018-Apr-23 14:55N 52°24' E 004°46'0 0.0
2018-Apr-23 14:25N 52°24' E 004°46'0 0.0
2018-Apr-23 13:52N 52°24' E 004°46'0 0.0
2018-Apr-23 13:19N 52°24' E 004°46'0 0.0
2018-Apr-23 12:52N 52°24' E 004°46'0 0.0
2018-Apr-23 12:10N 52°24' E 004°46'0 0.0
2018-Apr-23 11:55N 52°24' E 004°46'0 0.0
2018-Apr-23 11:19N 52°24' E 004°46'0 0.0
2018-Apr-23 10:58N 52°24' E 004°46'0 0.0
2018-Apr-23 10:22N 52°24' E 004°46'0 0.0
2018-Apr-23 09:49N 52°24' E 004°46'0 0.0
2018-Apr-23 09:25N 52°24' E 004°46'0 0.0
2018-Apr-23 08:58N 52°24' E 004°46'0 0.0
2018-Apr-23 08:28N 52°24' E 004°46'0 0.0
2018-Apr-23 07:52N 52°24' E 004°46'0 0.0
2018-Apr-23 07:22N 52°24' E 004°46'0 0.0
2018-Apr-23 06:58N 52°24' E 004°46'0 0.0
2018-Apr-23 06:19N 52°24' E 004°46'0 0.0
2018-Apr-23 05:58N 52°24' E 004°46'0 0.0
2018-Apr-23 05:28N 52°24' E 004°46'0 0.0
2018-Apr-23 04:58N 52°24' E 004°46'0 0.0
2018-Apr-23 04:22N 52°24' E 004°46'0 0.0
2018-Apr-23 03:52N 52°24' E 004°46'0 0.0
2018-Apr-23 03:22N 52°24' E 004°46'0 0.0
2018-Apr-23 02:55N 52°24' E 004°46'0 0.0
2018-Apr-23 02:28N 52°24' E 004°46'0 0.0
2018-Apr-23 01:58N 52°24' E 004°46'0 0.0
2018-Apr-23 01:28N 52°24' E 004°46'0 0.0
2018-Apr-23 00:58N 52°24' E 004°46'0 0.0
2018-Apr-23 00:28N 52°24' E 004°46'0 0.0
2018-Apr-22 23:58N 52°24' E 004°46'0 0.0
2018-Apr-22 23:25N 52°24' E 004°46'0 0.0
2018-Apr-22 22:58N 52°24' E 004°46'0 0.0
2018-Apr-22 22:28N 52°24' E 004°46'0 0.0
2018-Apr-22 21:58N 52°24' E 004°46'0 0.0
2018-Apr-22 21:25N 52°24' E 004°46'0 0.0
2018-Apr-22 20:55N 52°24' E 004°46'0 0.0
2018-Apr-22 20:22N 52°24' E 004°46'0 0.0
2018-Apr-22 19:55N 52°24' E 004°46'0 0.0
2018-Apr-22 19:28N 52°24' E 004°46'0 0.0
2018-Apr-22 18:55N 52°24' E 004°46'0 0.0
2018-Apr-22 18:28N 52°24' E 004°46'0 0.0
2018-Apr-22 17:46N 52°24' E 004°46'0 0.0
2018-Apr-22 17:28N 52°24' E 004°46'0 0.0
2018-Apr-22 16:46N 52°24' E 004°46'0 0.0
2018-Apr-22 16:25N 52°24' E 004°46'0 0.0
2018-Apr-22 15:55N 52°24' E 004°46'0 0.0
2018-Apr-22 15:25N 52°24' E 004°46'0 0.0
2018-Apr-22 14:58N 52°24' E 004°46'0 0.0
2018-Apr-22 14:25N 52°24' E 004°46'0 0.0
2018-Apr-22 13:58N 52°24' E 004°46'0 0.0
2018-Apr-22 13:28N 52°24' E 004°46'0 0.0
2018-Apr-22 12:52N 52°24' E 004°46'0 0.0
2018-Apr-22 12:28N 52°24' E 004°46'0 0.0
2018-Apr-22 11:58N 52°24' E 004°46'0 0.0
2018-Apr-22 11:28N 52°24' E 004°46'0 0.0
2018-Apr-22 10:55N 52°24' E 004°46'0 0.0
2018-Apr-22 10:13N 52°24' E 004°46'0 0.0
2018-Apr-22 09:58N 52°24' E 004°46'0 0.0
2018-Apr-22 09:22N 52°24' E 004°46'0 0.3
2018-Apr-22 09:00N 52°24' E 004°47'1 2.4
2018-Apr-22 08:31N 52°26' E 004°46'4 7.0
2018-Apr-22 08:00N 52°27' E 004°41'3 5.7
2018-Apr-22 07:30N 52°28' E 004°36'0 0.4
2018-Apr-22 07:00N 52°28' E 004°36'3 5.7
2018-Apr-22 06:30N 52°28' E 004°31'5 9.2
2018-Apr-22 06:00N 52°28' E 004°24'4 8.1
2018-Apr-22 05:30N 52°28' E 004°17'4 8.7
2018-Apr-22 05:00N 52°29' E 004°10'3 5.1
2018-Apr-22 04:30N 52°28' E 004°06'0 0.1
2018-Apr-22 04:00N 52°28' E 004°06'0 0.0
2018-Apr-22 03:30N 52°28' E 004°06'0 0.0
2018-Apr-22 02:57N 52°28' E 004°06'0 0.0
2018-Apr-22 02:30N 52°28' E 004°06'0 0.0
2018-Apr-22 02:00N 52°28' E 004°06'0 0.0
2018-Apr-22 01:27N 52°28' E 004°06'0 0.0
2018-Apr-22 01:00N 52°28' E 004°06'0 0.0
2018-Apr-22 00:30N 52°28' E 004°06'0 0.0
2018-Apr-22 00:00N 52°28' E 004°06'0 0.0
2018-Apr-21 23:27N 52°28' E 004°06'0 0.3
2018-Apr-21 23:00N 52°28' E 004°06'0 0.2
2018-Apr-21 22:27N 52°28' E 004°06'0 0.0
2018-Apr-21 22:00N 52°28' E 004°06'0 0.0
2018-Apr-21 21:30N 52°28' E 004°06'0 0.0
2018-Apr-21 21:00N 52°28' E 004°06'0 0.0
2018-Apr-21 20:27N 52°28' E 004°06'0 0.1
2018-Apr-21 20:00N 52°28' E 004°06'0 0.0
2018-Apr-21 19:30N 52°28' E 004°06'0 0.0
2018-Apr-21 18:57N 52°28' E 004°06'0 0.0
2018-Apr-21 18:30N 52°28' E 004°06'0 0.0
2018-Apr-21 17:12N 52°28' E 004°06'0 0.7
2018-Apr-21 17:00N 52°28' E 004°06'0 0.2
2018-Apr-21 16:30N 52°28' E 004°06'0 0.0
2018-Apr-21 16:00N 52°28' E 004°06'0 0.0
2018-Apr-21 15:30N 52°28' E 004°06'0 0.0
2018-Apr-21 15:00N 52°28' E 004°06'0 0.0
2018-Apr-21 14:30N 52°28' E 004°06'0 0.0
2018-Apr-21 14:00N 52°28' E 004°06'0 0.0
2018-Apr-21 13:30N 52°28' E 004°06'0 0.0
2018-Apr-21 13:00N 52°28' E 004°06'0 0.0
2018-Apr-21 12:30N 52°28' E 004°06'0 0.0
2018-Apr-21 12:00N 52°28' E 004°06'0 0.0
2018-Apr-21 11:30N 52°28' E 004°06'0 0.0
2018-Apr-21 10:42N 52°28' E 004°06'0 0.1
2018-Apr-21 10:30N 52°28' E 004°06'0 0.2
2018-Apr-21 09:57N 52°28' E 004°06'0 0.1
2018-Apr-21 09:30N 52°28' E 004°06'0 0.0
2018-Apr-21 08:57N 52°28' E 004°06'0 0.0
2018-Apr-21 07:30N 52°28' E 004°06'0 0.0
2018-Apr-21 04:09N 52°28' E 004°06'0 0.2
2018-Apr-21 03:45N 52°28' E 004°06'0 0.0
2018-Apr-21 03:30N 52°28' E 004°06'0 0.0
2018-Apr-21 03:00N 52°28' E 004°06'0 0.0
2018-Apr-21 02:30N 52°28' E 004°06'0 0.0
2018-Apr-21 02:00N 52°28' E 004°06'0 0.0
2018-Apr-21 01:30N 52°28' E 004°06'0 0.0
2018-Apr-21 01:00N 52°28' E 004°06'0 0.0
2018-Apr-21 00:30N 52°28' E 004°06'0 0.0
2018-Apr-20 23:51N 52°28' E 004°06'0 0.0
2018-Apr-20 23:30N 52°28' E 004°06'0 0.0
2018-Apr-20 22:57N 52°28' E 004°06'0 0.0
2018-Apr-20 22:30N 52°28' E 004°06'0 0.0
2018-Apr-20 22:00N 52°28' E 004°06'0 0.2
2018-Apr-20 21:24N 52°28' E 004°06'0 0.1
2018-Apr-20 20:54N 52°28' E 004°06'0 0.0
2018-Apr-20 20:30N 52°28' E 004°06'0 0.0
2018-Apr-20 20:00N 52°28' E 004°06'0 0.0
2018-Apr-20 19:30N 52°28' E 004°06'0 0.0
2018-Apr-20 19:00N 52°28' E 004°06'0 0.1
2018-Apr-20 18:24N 52°28' E 004°06'0 0.0
2018-Apr-20 18:00N 52°28' E 004°06'0 0.0
2018-Apr-20 17:09N 52°28' E 004°06'0 0.1
2018-Apr-20 17:00N 52°28' E 004°06'0 0.0
2018-Apr-20 16:12N 52°28' E 004°06'0 0.1
2018-Apr-20 15:48N 52°28' E 004°06'0 0.2
2018-Apr-20 15:30N 52°28' E 004°06'0 0.2
2018-Apr-20 15:00N 52°28' E 004°06'0 0.0
2018-Apr-20 14:30N 52°28' E 004°06'0 0.0
2018-Apr-20 14:00N 52°28' E 004°06'0 0.0
2018-Apr-20 13:27N 52°28' E 004°06'0 0.0
2018-Apr-20 13:00N 52°28' E 004°06'0 0.0
2018-Apr-20 12:27N 52°28' E 004°06'0 0.0
2018-Apr-20 12:00N 52°28' E 004°06'0 0.0
2018-Apr-20 11:30N 52°28' E 004°06'0 0.0
2018-Apr-20 10:51N 52°28' E 004°06'0 0.0
2018-Apr-20 10:30N 52°28' E 004°06'0 0.0
2018-Apr-20 10:00N 52°28' E 004°06'0 0.2
2018-Apr-20 09:30N 52°28' E 004°06'0 0.1
2018-Apr-20 07:51N 52°28' E 004°06'0 0.0
2018-Apr-20 07:24N 52°28' E 004°06'0 0.0
2018-Apr-20 07:00N 52°28' E 004°06'0 0.0
2018-Apr-20 06:27N 52°28' E 004°06'0 0.0
2018-Apr-20 06:00N 52°28' E 004°06'0 0.1
2018-Apr-20 05:15N 52°28' E 004°06'0 0.0
2018-Apr-20 04:39N 52°28' E 004°06'0 0.0
2018-Apr-20 04:30N 52°28' E 004°06'0 0.0
2018-Apr-20 02:57N 52°28' E 004°06'0 0.1
2018-Apr-20 02:30N 52°28' E 004°06'0 0.0
2018-Apr-20 01:57N 52°28' E 004°06'0 0.0
2018-Apr-20 01:30N 52°28' E 004°06'0 0.0
2018-Apr-20 01:00N 52°28' E 004°06'0 0.0
2018-Apr-20 00:30N 52°28' E 004°06'0 0.0
2018-Apr-19 23:57N 52°28' E 004°06'0 0.0
2018-Apr-19 23:30N 52°28' E 004°06'0 0.0
2018-Apr-19 23:00N 52°28' E 004°06'0 0.0
2018-Apr-19 22:30N 52°28' E 004°06'0 0.0
2018-Apr-19 22:00N 52°28' E 004°06'0 0.0
2018-Apr-19 21:30N 52°28' E 004°06'0 0.0
2018-Apr-19 21:00N 52°28' E 004°06'0 0.2
2018-Apr-19 20:30N 52°28' E 004°06'0 0.1
2018-Apr-19 20:00N 52°28' E 004°06'0 0.0
2018-Apr-19 19:27N 52°28' E 004°06'0 0.0
2018-Apr-19 18:54N 52°28' E 004°06'0 0.1
2018-Apr-19 18:27N 52°28' E 004°06'0 0.1
2018-Apr-19 18:00N 52°28' E 004°06'0 0.0
2018-Apr-19 17:30N 52°28' E 004°06'0 0.0
2018-Apr-19 17:00N 52°28' E 004°06'0 0.0
2018-Apr-19 16:24N 52°28' E 004°06'0 0.0
2018-Apr-19 15:36N 52°28' E 004°06'0 0.0
2018-Apr-19 15:15N 52°28' E 004°06'0 0.3
2018-Apr-19 15:00N 52°28' E 004°06'0 0.1
2018-Apr-19 14:30N 52°28' E 004°06'0 0.0
2018-Apr-19 14:00N 52°28' E 004°06'0 0.0
2018-Apr-19 13:27N 52°28' E 004°06'0 0.0
2018-Apr-19 13:00N 52°28' E 004°06'0 0.1
2018-Apr-19 12:27N 52°28' E 004°06'0 0.0
2018-Apr-19 12:00N 52°28' E 004°06'0 0.0
2018-Apr-19 11:30N 52°28' E 004°06'0 0.0
2018-Apr-19 10:51N 52°28' E 004°06'0 0.0
2018-Apr-19 10:12N 52°28' E 004°06'0 0.0
2018-Apr-19 09:57N 52°28' E 004°06'0 0.0
2018-Apr-19 09:30N 52°28' E 004°06'0 0.1
2018-Apr-19 08:54N 52°28' E 004°06'0 0.2
2018-Apr-19 08:30N 52°28' E 004°06'0 0.1
2018-Apr-19 08:00N 52°28' E 004°06'0 0.1
2018-Apr-19 07:30N 52°28' E 004°06'0 0.0
2018-Apr-19 06:57N 52°28' E 004°06'0 0.0
2018-Apr-19 06:30N 52°28' E 004°06'0 0.0
2018-Apr-19 05:48N 52°28' E 004°06'0 0.0
2018-Apr-19 05:27N 52°28' E 004°06'0 0.0
2018-Apr-19 05:00N 52°28' E 004°06'0 0.0
2018-Apr-19 04:30N 52°28' E 004°06'0 0.0
2018-Apr-19 03:54N 52°28' E 004°06'0 0.0
2018-Apr-19 03:18N 52°28' E 004°06'0 0.2
2018-Apr-19 03:00N 52°28' E 004°06'0 0.2
2018-Apr-19 02:30N 52°28' E 004°06'0 0.1
2018-Apr-19 02:00N 52°28' E 004°06'0 0.1
2018-Apr-19 01:30N 52°28' E 004°06'0 0.0
2018-Apr-19 01:00N 52°28' E 004°06'0 0.0
2018-Apr-19 00:30N 52°28' E 004°06'0 0.0
2018-Apr-19 00:00N 52°28' E 004°06'0 0.0
2018-Apr-18 23:27N 52°28' E 004°06'0 0.0
2018-Apr-18 23:00N 52°28' E 004°06'0 0.0
2018-Apr-18 22:30N 52°28' E 004°06'0 0.0
2018-Apr-18 22:00N 52°28' E 004°06'0 0.0
2018-Apr-18 21:30N 52°28' E 004°06'0 0.0
2018-Apr-18 21:00N 52°28' E 004°06'0 0.0
2018-Apr-18 20:30N 52°28' E 004°06'0 0.0
2018-Apr-18 20:00N 52°28' E 004°06'0 0.2
2018-Apr-18 19:21N 52°28' E 004°06'0 0.1
2018-Apr-18 19:00N 52°28' E 004°06'0 0.0
2018-Apr-18 18:27N 52°28' E 004°06'0 0.1
2018-Apr-18 18:00N 52°28' E 004°06'0 0.1
2018-Apr-18 17:27N 52°28' E 004°06'0 0.1
2018-Apr-18 16:57N 52°28' E 004°06'0 0.0
2018-Apr-18 16:24N 52°28' E 004°06'0 0.0
2018-Apr-18 15:15N 52°28' E 004°06'0 0.0
2018-Apr-18 14:54N 52°28' E 004°06'0 0.2
2018-Apr-18 14:30N 52°28' E 004°06'0 0.2
2018-Apr-18 14:00N 52°28' E 004°06'0 0.1
2018-Apr-18 13:30N 52°28' E 004°06'0 0.0
2018-Apr-18 13:00N 52°28' E 004°06'0 0.0
2018-Apr-18 12:30N 52°28' E 004°06'0 0.0
2018-Apr-18 11:57N 52°28' E 004°06'0 0.0
2018-Apr-18 11:30N 52°28' E 004°06'0 0.0
2018-Apr-18 10:54N 52°28' E 004°06'0 0.0
2018-Apr-18 10:30N 52°28' E 004°06'0 0.0
2018-Apr-18 10:00N 52°28' E 004°06'0 0.0
2018-Apr-18 09:30N 52°28' E 004°06'0 0.0
2018-Apr-18 09:00N 52°28' E 004°06'0 0.3
2018-Apr-18 08:30N 52°28' E 004°06'0 0.0
2018-Apr-18 06:24N 52°28' E 004°06'0 0.0
2018-Apr-18 05:42N 52°28' E 004°06'0 0.0
2018-Apr-18 05:27N 52°28' E 004°06'0 0.1
2018-Apr-18 05:00N 52°28' E 004°06'3 6.6
2018-Apr-18 04:31N 52°28' E 004°01'510.6
2018-Apr-18 04:00N 52°27' E 003°52'611.0
2018-Apr-18 03:29N 52°26' E 003°43'611.6
2018-Apr-18 03:00N 52°28' E 003°34'38610.8
2018-Apr-16 15:21N 57°44' E 010°00'411.5
2018-Apr-16 14:59N 57°45' E 010°07'611.6
2018-Apr-16 14:29N 57°48' E 010°17'611.8
2018-Apr-16 14:00N 57°49' E 010°28'612.0
2018-Apr-16 13:31N 57°50' E 010°39'611.3
2018-Apr-16 13:01N 57°48' E 010°49'611.8
2018-Apr-16 12:30N 57°45' E 010°59'611.9
2018-Apr-16 12:00N 57°43' E 011°09'612.2
2018-Apr-16 11:31N 57°40' E 011°19'612.4
2018-Apr-16 11:00N 57°37' E 011°30'611.2
2018-Apr-16 10:31N 57°37' E 011°40'5 9.8
2018-Apr-16 10:00N 57°41' E 011°46'4 6.6
2018-Apr-16 09:28N 57°41' E 011°52'  
Track history (hours):
 
Tides and Currents Weather Stations Pressure Air Temp Water Temp Dewpoint Dewpoint Depression Visibility Wind Speed Wind Dir Waves Ship Positions

Fure West

Last reported at 2018-Apr-26 08:59 UTC. Time now 2018-Apr-26 09:27 UTC.
Position N 54°51' E 005°37'.

Length 144 m; draft 9.1 m.

Type: Ship (hazmat cat C). MMSI: 231775000.

Date/timePositionNaut miles runAvg speedWind from/ knotsBaromVisibWave heightAir tempDewpointWater temp
2018-Apr-26 08:59N 54°51' E 005°37'510.2
2018-Apr-26 08:30N 54°47' E 005°32'612.0
2018-Apr-26 07:59N 54°42' E 005°26'611.8
2018-Apr-26 07:29N 54°38' E 005°18'3 6.7
2018-Apr-26 06:59N 54°37' E 005°13'3 6.8
2018-Apr-26 06:30N 54°35' E 005°16'611.5
2018-Apr-26 06:00N 54°29' E 005°12'612.2
2018-Apr-26 05:28N 54°24' E 005°06'612.3
2018-Apr-26 04:59N 54°19' E 005°00'612.5
2018-Apr-26 04:30N 54°14' E 004°55'2112.3
2018-Apr-26 02:46N 53°56' E 004°35'10911.5
2018-Apr-25 17:15N 52°17' E 003°17'311.8
2018-Apr-25 17:00N 52°15' E 003°20'611.8
2018-Apr-25 16:30N 52°11' E 003°27'712.1
2018-Apr-25 15:54N 52°07' E 003°37'512.1
2018-Apr-25 15:30N 52°05' E 003°44'612.2
2018-Apr-25 15:00N 52°03' E 003°53'4 8.9
2018-Apr-25 14:30N 52°01' E 003°59'4 8.9
2018-Apr-25 14:01N 51°58' E 004°04'1 2.5
2018-Apr-25 13:28N 51°58' E 004°02'0 0.0
2018-Apr-25 12:58N 51°58' E 004°02'0 0.0
2018-Apr-24 19:03N 51°58' E 004°02'0 0.0
2018-Apr-24 18:35N 51°58' E 004°02'0 0.1
2018-Apr-24 18:30N 51°58' E 004°02'1 1.6
2018-Apr-24 18:00N 51°58' E 004°03'2 4.0
2018-Apr-24 17:30N 51°59' E 004°02'612.2
2018-Apr-24 17:00N 52°01' E 003°52'510.6
2018-Apr-24 16:29N 52°05' E 003°46'5 9.8
2018-Apr-24 16:00N 52°09' E 003°43'2 2.8
2018-Apr-24 15:27N 52°11' E 003°41'0 0.1
2018-Apr-24 14:57N 52°11' E 003°41'0 0.1
2018-Apr-24 14:21N 52°11' E 003°42'0 0.1
2018-Apr-24 13:48N 52°11' E 003°41'0 0.0
2018-Apr-24 13:24N 52°11' E 003°41'0 0.0
2018-Apr-24 13:00N 52°11' E 003°41'0 0.0
2018-Apr-24 12:21N 52°11' E 003°41'0 0.0
2018-Apr-24 11:51N 52°11' E 003°41'0 0.0
2018-Apr-24 11:27N 52°11' E 003°41'0 0.0
2018-Apr-24 10:48N 52°11' E 003°42'0 0.1
2018-Apr-24 10:24N 52°11' E 003°41'0 0.0
2018-Apr-24 09:57N 52°11' E 003°41'0 0.0
2018-Apr-24 09:30N 52°11' E 003°42'0 0.0
2018-Apr-24 07:57N 52°11' E 003°41'0 0.1
2018-Apr-24 07:30N 52°11' E 003°42'0 0.0
2018-Apr-24 06:57N 52°11' E 003°41'0 0.0
2018-Apr-24 06:30N 52°11' E 003°42'0 0.0
2018-Apr-24 06:00N 52°11' E 003°42'0 0.0
2018-Apr-24 05:21N 52°11' E 003°41'0 0.0
2018-Apr-24 04:51N 52°11' E 003°41'0 0.1
2018-Apr-24 04:30N 52°11' E 003°41'0 0.0
2018-Apr-24 03:48N 52°11' E 003°41'0 0.0
2018-Apr-24 03:27N 52°11' E 003°41'0 0.0
2018-Apr-24 03:00N 52°11' E 003°41'0 0.0
2018-Apr-24 02:27N 52°11' E 003°42'0 0.3
2018-Apr-24 01:54N 52°10' E 003°41'2 4.8
2018-Apr-24 01:30N 52°12' E 003°44'510.2
2018-Apr-24 01:01N 52°16' E 003°47'15 9.7
2018-Apr-23 23:25N 52°31' E 003°54'4 9.8
2018-Apr-23 23:00N 52°31' E 004°01'5 9.2
2018-Apr-23 22:30N 52°31' E 004°09'5 9.1
2018-Apr-23 22:00N 52°31' E 004°16'5 9.5
2018-Apr-23 21:30N 52°30' E 004°24'4 8.9
2018-Apr-23 21:00N 52°28' E 004°31'4 7.4
2018-Apr-23 20:30N 52°28' E 004°37'0 0.0
2018-Apr-23 20:00N 52°28' E 004°37'2 4.1
2018-Apr-23 19:30N 52°28' E 004°40'4 8.0
2018-Apr-23 19:00N 52°26' E 004°46'1 2.6
2018-Apr-23 18:28N 52°24' E 004°46'0 0.0
2018-Apr-23 17:58N 52°24' E 004°46'0 0.0
2018-Apr-23 17:19N 52°24' E 004°46'0 0.0
2018-Apr-23 16:58N 52°24' E 004°46'0 0.0
2018-Apr-23 16:07N 52°24' E 004°46'0 0.0
2018-Apr-23 15:52N 52°24' E 004°46'0 0.0
2018-Apr-23 15:28N 52°24' E 004°46'0 0.0
2018-Apr-23 14:55N 52°24' E 004°46'0 0.0
2018-Apr-23 14:25N 52°24' E 004°46'0 0.0
2018-Apr-23 13:52N 52°24' E 004°46'0 0.0
2018-Apr-23 13:19N 52°24' E 004°46'0 0.0
2018-Apr-23 12:52N 52°24' E 004°46'0 0.0
2018-Apr-23 12:10N 52°24' E 004°46'0 0.0
2018-Apr-23 11:55N 52°24' E 004°46'0 0.0
2018-Apr-23 11:19N 52°24' E 004°46'0 0.0
2018-Apr-23 10:58N 52°24' E 004°46'0 0.0
2018-Apr-23 10:22N 52°24' E 004°46'0 0.0
2018-Apr-23 09:49N 52°24' E 004°46'0 0.0
2018-Apr-23 09:25N 52°24' E 004°46'0 0.0
2018-Apr-23 08:58N 52°24' E 004°46'0 0.0
2018-Apr-23 08:28N 52°24' E 004°46'0 0.0
2018-Apr-23 07:52N 52°24' E 004°46'0 0.0
2018-Apr-23 07:22N 52°24' E 004°46'0 0.0
2018-Apr-23 06:58N 52°24' E 004°46'0 0.0
2018-Apr-23 06:19N 52°24' E 004°46'0 0.0
2018-Apr-23 05:58N 52°24' E 004°46'0 0.0
2018-Apr-23 05:28N 52°24' E 004°46'0 0.0
2018-Apr-23 04:58N 52°24' E 004°46'0 0.0
2018-Apr-23 04:22N 52°24' E 004°46'0 0.0
2018-Apr-23 03:52N 52°24' E 004°46'0 0.0
2018-Apr-23 03:22N 52°24' E 004°46'0 0.0
2018-Apr-23 02:55N 52°24' E 004°46'0 0.0
2018-Apr-23 02:28N 52°24' E 004°46'0 0.0
2018-Apr-23 01:58N 52°24' E 004°46'0 0.0
2018-Apr-23 01:28N 52°24' E 004°46'0 0.0
2018-Apr-23 00:58N 52°24' E 004°46'0 0.0
2018-Apr-23 00:28N 52°24' E 004°46'0 0.0
2018-Apr-22 23:58N 52°24' E 004°46'0 0.0
2018-Apr-22 23:25N 52°24' E 004°46'0 0.0
2018-Apr-22 22:58N 52°24' E 004°46'0 0.0
2018-Apr-22 22:28N 52°24' E 004°46'0 0.0
2018-Apr-22 21:58N 52°24' E 004°46'0 0.0
2018-Apr-22 21:25N 52°24' E 004°46'0 0.0
2018-Apr-22 20:55N 52°24' E 004°46'0 0.0
2018-Apr-22 20:22N 52°24' E 004°46'0 0.0
2018-Apr-22 19:55N 52°24' E 004°46'0 0.0
2018-Apr-22 19:28N 52°24' E 004°46'0 0.0
2018-Apr-22 18:55N 52°24' E 004°46'0 0.0
2018-Apr-22 18:28N 52°24' E 004°46'0 0.0
2018-Apr-22 17:46N 52°24' E 004°46'0 0.0
2018-Apr-22 17:28N 52°24' E 004°46'0 0.0
2018-Apr-22 16:46N 52°24' E 004°46'0 0.0
2018-Apr-22 16:25N 52°24' E 004°46'0 0.0
2018-Apr-22 15:55N 52°24' E 004°46'0 0.0
2018-Apr-22 15:25N 52°24' E 004°46'0 0.0
2018-Apr-22 14:58N 52°24' E 004°46'0 0.0
2018-Apr-22 14:25N 52°24' E 004°46'0 0.0
2018-Apr-22 13:58N 52°24' E 004°46'0 0.0
2018-Apr-22 13:28N 52°24' E 004°46'0 0.0
2018-Apr-22 12:52N 52°24' E 004°46'0 0.0
2018-Apr-22 12:28N 52°24' E 004°46'0 0.0
2018-Apr-22 11:58N 52°24' E 004°46'0 0.0
2018-Apr-22 11:28N 52°24' E 004°46'0 0.0
2018-Apr-22 10:55N 52°24' E 004°46'0 0.0
2018-Apr-22 10:13N 52°24' E 004°46'0 0.0
2018-Apr-22 09:58N 52°24' E 004°46'0 0.0
2018-Apr-22 09:22N 52°24' E 004°46'0 0.3
2018-Apr-22 09:00N 52°24' E 004°47'1 2.4
2018-Apr-22 08:31N 52°26' E 004°46'4 7.0
2018-Apr-22 08:00N 52°27' E 004°41'3 5.7
2018-Apr-22 07:30N 52°28' E 004°36'0 0.4
2018-Apr-22 07:00N 52°28' E 004°36'3 5.7
2018-Apr-22 06:30N 52°28' E 004°31'5 9.2
2018-Apr-22 06:00N 52°28' E 004°24'4 8.1
2018-Apr-22 05:30N 52°28' E 004°17'4 8.7
2018-Apr-22 05:00N 52°29' E 004°10'3 5.1
2018-Apr-22 04:30N 52°28' E 004°06'0 0.1
2018-Apr-22 04:00N 52°28' E 004°06'0 0.0
2018-Apr-22 03:30N 52°28' E 004°06'0 0.0
2018-Apr-22 02:57N 52°28' E 004°06'0 0.0
2018-Apr-22 02:30N 52°28' E 004°06'0 0.0
2018-Apr-22 02:00N 52°28' E 004°06'0 0.0
2018-Apr-22 01:27N 52°28' E 004°06'0 0.0
2018-Apr-22 01:00N 52°28' E 004°06'0 0.0
2018-Apr-22 00:30N 52°28' E 004°06'0 0.0
2018-Apr-22 00:00N 52°28' E 004°06'0 0.0
2018-Apr-21 23:27N 52°28' E 004°06'0 0.3
2018-Apr-21 23:00N 52°28' E 004°06'0 0.2
2018-Apr-21 22:27N 52°28' E 004°06'0 0.0
2018-Apr-21 22:00N 52°28' E 004°06'0 0.0
2018-Apr-21 21:30N 52°28' E 004°06'0 0.0
2018-Apr-21 21:00N 52°28' E 004°06'0 0.0
2018-Apr-21 20:27N 52°28' E 004°06'0 0.1
2018-Apr-21 20:00N 52°28' E 004°06'0 0.0
2018-Apr-21 19:30N 52°28' E 004°06'0 0.0
2018-Apr-21 18:57N 52°28' E 004°06'0 0.0
2018-Apr-21 18:30N 52°28' E 004°06'0 0.0
2018-Apr-21 17:12N 52°28' E 004°06'0 0.7
2018-Apr-21 17:00N 52°28' E 004°06'0 0.2
2018-Apr-21 16:30N 52°28' E 004°06'0 0.0
2018-Apr-21 16:00N 52°28' E 004°06'0 0.0
2018-Apr-21 15:30N 52°28' E 004°06'0 0.0
2018-Apr-21 15:00N 52°28' E 004°06'0 0.0
2018-Apr-21 14:30N 52°28' E 004°06'0 0.0
2018-Apr-21 14:00N 52°28' E 004°06'0 0.0
2018-Apr-21 13:30N 52°28' E 004°06'0 0.0
2018-Apr-21 13:00N 52°28' E 004°06'0 0.0
2018-Apr-21 12:30N 52°28' E 004°06'0 0.0
2018-Apr-21 12:00N 52°28' E 004°06'0 0.0
2018-Apr-21 11:30N 52°28' E 004°06'0 0.0
2018-Apr-21 10:42N 52°28' E 004°06'0 0.1
2018-Apr-21 10:30N 52°28' E 004°06'0 0.2
2018-Apr-21 09:57N 52°28' E 004°06'0 0.1
2018-Apr-21 09:30N 52°28' E 004°06'0 0.0
2018-Apr-21 08:57N 52°28' E 004°06'0 0.0
2018-Apr-21 07:30N 52°28' E 004°06'0 0.0
2018-Apr-21 04:09N 52°28' E 004°06'0 0.2
2018-Apr-21 03:45N 52°28' E 004°06'0 0.0
2018-Apr-21 03:30N 52°28' E 004°06'0 0.0
2018-Apr-21 03:00N 52°28' E 004°06'0 0.0
2018-Apr-21 02:30N 52°28' E 004°06'0 0.0
2018-Apr-21 02:00N 52°28' E 004°06'0 0.0
2018-Apr-21 01:30N 52°28' E 004°06'0 0.0
2018-Apr-21 01:00N 52°28' E 004°06'0 0.0
2018-Apr-21 00:30N 52°28' E 004°06'0 0.0
2018-Apr-20 23:51N 52°28' E 004°06'0 0.0
2018-Apr-20 23:30N 52°28' E 004°06'0 0.0
2018-Apr-20 22:57N 52°28' E 004°06'0 0.0
2018-Apr-20 22:30N 52°28' E 004°06'0 0.0
2018-Apr-20 22:00N 52°28' E 004°06'0 0.2
2018-Apr-20 21:24N 52°28' E 004°06'0 0.1
2018-Apr-20 20:54N 52°28' E 004°06'0 0.0
2018-Apr-20 20:30N 52°28' E 004°06'0 0.0
2018-Apr-20 20:00N 52°28' E 004°06'0 0.0
2018-Apr-20 19:30N 52°28' E 004°06'0 0.0
2018-Apr-20 19:00N 52°28' E 004°06'0 0.1
2018-Apr-20 18:24N 52°28' E 004°06'0 0.0
2018-Apr-20 18:00N 52°28' E 004°06'0 0.0
2018-Apr-20 17:09N 52°28' E 004°06'0 0.1
2018-Apr-20 17:00N 52°28' E 004°06'0 0.0
2018-Apr-20 16:12N 52°28' E 004°06'0 0.1
2018-Apr-20 15:48N 52°28' E 004°06'0 0.2
2018-Apr-20 15:30N 52°28' E 004°06'0 0.2
2018-Apr-20 15:00N 52°28' E 004°06'0 0.0
2018-Apr-20 14:30N 52°28' E 004°06'0 0.0
2018-Apr-20 14:00N 52°28' E 004°06'0 0.0
2018-Apr-20 13:27N 52°28' E 004°06'0 0.0
2018-Apr-20 13:00N 52°28' E 004°06'0 0.0
2018-Apr-20 12:27N 52°28' E 004°06'0 0.0
2018-Apr-20 12:00N 52°28' E 004°06'0 0.0
2018-Apr-20 11:30N 52°28' E 004°06'0 0.0
2018-Apr-20 10:51N 52°28' E 004°06'0 0.0
2018-Apr-20 10:30N 52°28' E 004°06'0 0.0
2018-Apr-20 10:00N 52°28' E 004°06'0 0.2
2018-Apr-20 09:30N 52°28' E 004°06'0 0.1
2018-Apr-20 07:51N 52°28' E 004°06'0 0.0
2018-Apr-20 07:24N 52°28' E 004°06'0 0.0
2018-Apr-20 07:00N 52°28' E 004°06'0 0.0
2018-Apr-20 06:27N 52°28' E 004°06'0 0.0
2018-Apr-20 06:00N 52°28' E 004°06'0 0.1
2018-Apr-20 05:15N 52°28' E 004°06'0 0.0
2018-Apr-20 04:39N 52°28' E 004°06'0 0.0
2018-Apr-20 04:30N 52°28' E 004°06'0 0.0
2018-Apr-20 02:57N 52°28' E 004°06'0 0.1
2018-Apr-20 02:30N 52°28' E 004°06'0 0.0
2018-Apr-20 01:57N 52°28' E 004°06'0 0.0
2018-Apr-20 01:30N 52°28' E 004°06'0 0.0
2018-Apr-20 01:00N 52°28' E 004°06'0 0.0
2018-Apr-20 00:30N 52°28' E 004°06'0 0.0
2018-Apr-19 23:57N 52°28' E 004°06'0 0.0
2018-Apr-19 23:30N 52°28' E 004°06'0 0.0
2018-Apr-19 23:00N 52°28' E 004°06'0 0.0
2018-Apr-19 22:30N 52°28' E 004°06'0 0.0
2018-Apr-19 22:00N 52°28' E 004°06'0 0.0
2018-Apr-19 21:30N 52°28' E 004°06'0 0.0
2018-Apr-19 21:00N 52°28' E 004°06'0 0.2
2018-Apr-19 20:30N 52°28' E 004°06'0 0.1
2018-Apr-19 20:00N 52°28' E 004°06'0 0.0
2018-Apr-19 19:27N 52°28' E 004°06'0 0.0
2018-Apr-19 18:54N 52°28' E 004°06'0 0.1
2018-Apr-19 18:27N 52°28' E 004°06'0 0.1
2018-Apr-19 18:00N 52°28' E 004°06'0 0.0
2018-Apr-19 17:30N 52°28' E 004°06'0 0.0
2018-Apr-19 17:00N 52°28' E 004°06'0 0.0
2018-Apr-19 16:24N 52°28' E 004°06'0 0.0
2018-Apr-19 15:36N 52°28' E 004°06'0 0.0
2018-Apr-19 15:15N 52°28' E 004°06'0 0.3
2018-Apr-19 15:00N 52°28' E 004°06'0 0.1
2018-Apr-19 14:30N 52°28' E 004°06'0 0.0
2018-Apr-19 14:00N 52°28' E 004°06'0 0.0
2018-Apr-19 13:27N 52°28' E 004°06'0 0.0
2018-Apr-19 13:00N 52°28' E 004°06'0 0.1
2018-Apr-19 12:27N 52°28' E 004°06'0 0.0
2018-Apr-19 12:00N 52°28' E 004°06'0 0.0
2018-Apr-19 11:30N 52°28' E 004°06'0 0.0
2018-Apr-19 10:51N 52°28' E 004°06'0 0.0
2018-Apr-19 10:12N 52°28' E 004°06'0 0.0
2018-Apr-19 09:57N 52°28' E 004°06'0 0.0
2018-Apr-19 09:30N 52°28' E 004°06'0 0.1
2018-Apr-19 08:54N 52°28' E 004°06'0 0.2
2018-Apr-19 08:30N 52°28' E 004°06'0 0.1
2018-Apr-19 08:00N 52°28' E 004°06'0 0.1
2018-Apr-19 07:30N 52°28' E 004°06'0 0.0
2018-Apr-19 06:57N 52°28' E 004°06'0 0.0
2018-Apr-19 06:30N 52°28' E 004°06'0 0.0
2018-Apr-19 05:48N 52°28' E 004°06'0 0.0
2018-Apr-19 05:27N 52°28' E 004°06'0 0.0
2018-Apr-19 05:00N 52°28' E 004°06'0 0.0
2018-Apr-19 04:30N 52°28' E 004°06'0 0.0
2018-Apr-19 03:54N 52°28' E 004°06'0 0.0
2018-Apr-19 03:18N 52°28' E 004°06'0 0.2
2018-Apr-19 03:00N 52°28' E 004°06'0 0.2
2018-Apr-19 02:30N 52°28' E 004°06'0 0.1
2018-Apr-19 02:00N 52°28' E 004°06'0 0.1
2018-Apr-19 01:30N 52°28' E 004°06'0 0.0
2018-Apr-19 01:00N 52°28' E 004°06'0 0.0
2018-Apr-19 00:30N 52°28' E 004°06'0 0.0
2018-Apr-19 00:00N 52°28' E 004°06'0 0.0
2018-Apr-18 23:27N 52°28' E 004°06'0 0.0
2018-Apr-18 23:00N 52°28' E 004°06'0 0.0
2018-Apr-18 22:30N 52°28' E 004°06'0 0.0
2018-Apr-18 22:00N 52°28' E 004°06'0 0.0
2018-Apr-18 21:30N 52°28' E 004°06'0 0.0
2018-Apr-18 21:00N 52°28' E 004°06'0 0.0
2018-Apr-18 20:30N 52°28' E 004°06'0 0.0
2018-Apr-18 20:00N 52°28' E 004°06'0 0.2
2018-Apr-18 19:21N 52°28' E 004°06'0 0.1
2018-Apr-18 19:00N 52°28' E 004°06'0 0.0
2018-Apr-18 18:27N 52°28' E 004°06'0 0.1
2018-Apr-18 18:00N 52°28' E 004°06'0 0.1
2018-Apr-18 17:27N 52°28' E 004°06'0 0.1
2018-Apr-18 16:57N 52°28' E 004°06'0 0.0
2018-Apr-18 16:24N 52°28' E 004°06'0 0.0
2018-Apr-18 15:15N 52°28' E 004°06'0 0.0
2018-Apr-18 14:54N 52°28' E 004°06'0 0.2
2018-Apr-18 14:30N 52°28' E 004°06'0 0.2
2018-Apr-18 14:00N 52°28' E 004°06'0 0.1
2018-Apr-18 13:30N 52°28' E 004°06'0 0.0
2018-Apr-18 13:00N 52°28' E 004°06'0 0.0
2018-Apr-18 12:30N 52°28' E 004°06'0 0.0
2018-Apr-18 11:57N 52°28' E 004°06'0 0.0
2018-Apr-18 11:30N 52°28' E 004°06'0 0.0
2018-Apr-18 10:54N 52°28' E 004°06'0 0.0
2018-Apr-18 10:30N 52°28' E 004°06'0 0.0
2018-Apr-18 10:00N 52°28' E 004°06'0 0.0
2018-Apr-18 09:30N 52°28' E 004°06'0 0.0
2018-Apr-18 09:00N 52°28' E 004°06'0 0.3
2018-Apr-18 08:30N 52°28' E 004°06'0 0.0
2018-Apr-18 06:24N 52°28' E 004°06'0 0.0
2018-Apr-18 05:42N 52°28' E 004°06'0 0.0
2018-Apr-18 05:27N 52°28' E 004°06'0 0.1
2018-Apr-18 05:00N 52°28' E 004°06'3 6.6
2018-Apr-18 04:31N 52°28' E 004°01'510.6
2018-Apr-18 04:00N 52°27' E 003°52'611.0
2018-Apr-18 03:29N 52°26' E 003°43'611.6
2018-Apr-18 03:00N 52°28' E 003°34'38610.8
2018-Apr-16 15:21N 57°44' E 010°00'411.5
2018-Apr-16 14:59N 57°45' E 010°07'611.6
2018-Apr-16 14:29N 57°48' E 010°17'611.8
2018-Apr-16 14:00N 57°49' E 010°28'612.0
2018-Apr-16 13:31N 57°50' E 010°39'611.3
2018-Apr-16 13:01N 57°48' E 010°49'611.8
2018-Apr-16 12:30N 57°45' E 010°59'611.9
2018-Apr-16 12:00N 57°43' E 011°09'612.2
2018-Apr-16 11:31N 57°40' E 011°19'612.4
2018-Apr-16 11:00N 57°37' E 011°30'611.2
2018-Apr-16 10:31N 57°37' E 011°40'5 9.8
2018-Apr-16 10:00N 57°41' E 011°46'4 6.6
2018-Apr-16 09:28N 57°41' E 011°52'  

Dump ship's entire track history